createdAt,value
2018-06-24T00:00:43.111Z,8.20
2018-06-24T00:03:11.817Z,8.63
2018-06-24T00:05:40.362Z,11.50
2018-06-24T00:08:09.282Z,9.53
2018-06-24T00:10:38.554Z,8.30
2018-06-24T00:13:08.080Z,6.53
2018-06-24T00:15:37.766Z,7.40
2018-06-24T00:18:06.405Z,7.40
2018-06-24T00:20:35.216Z,8.83
2018-06-24T00:23:06.364Z,9.27
2018-06-24T00:25:35.592Z,8.80
2018-06-24T00:28:05.215Z,8.00
2018-06-24T00:30:33.775Z,12.60
2018-06-24T00:33:02.364Z,12.07
2018-06-24T00:35:31.257Z,9.90
2018-06-24T00:38:00.701Z,12.13
2018-06-24T00:40:29.268Z,11.67
2018-06-24T00:42:58.605Z,10.27
2018-06-24T00:45:27.099Z,13.10
2018-06-24T00:47:57.202Z,11.93
2018-06-24T00:50:25.809Z,8.80
2018-06-24T00:52:55.118Z,11.03
2018-06-24T00:55:24.656Z,7.77
2018-06-24T00:57:53.225Z,11.40
2018-06-24T01:00:22.399Z,9.07
2018-06-24T01:02:50.934Z,10.30
2018-06-24T01:05:19.570Z,8.70
2018-06-24T01:07:48.067Z,7.30
2018-06-24T01:10:17.540Z,9.57
2018-06-24T01:12:46.186Z,10.43
2018-06-24T01:15:15.414Z,8.70
2018-06-24T01:17:44.381Z,10.77
2018-06-24T01:20:12.910Z,14.13
2018-06-24T01:22:42.229Z,7.57
2018-06-24T01:25:11.815Z,8.57
2018-06-24T01:27:40.646Z,14.23
2018-06-24T01:30:10.004Z,8.37
2018-06-24T01:32:38.599Z,10.30
2018-06-24T01:35:07.795Z,10.33
2018-06-24T01:37:36.409Z,11.30
2018-06-24T01:40:05.280Z,15.53
2018-06-24T01:42:34.293Z,8.70
2018-06-24T01:45:02.819Z,9.97
2018-06-24T01:47:32.032Z,9.23
2018-06-24T01:50:00.647Z,9.00
2018-06-24T01:52:31.191Z,11.10
2018-06-24T01:55:00.010Z,10.23
2018-06-24T01:57:29.236Z,15.13
2018-06-24T01:59:57.849Z,12.30
2018-06-24T02:02:26.695Z,9.77
2018-06-24T02:04:55.961Z,10.10
2018-06-24T02:07:24.495Z,10.13
2018-06-24T02:09:53.278Z,10.10
2018-06-24T02:12:22.541Z,10.60
2018-06-24T02:14:52.503Z,10.40
2018-06-24T02:17:21.892Z,8.20
2018-06-24T02:19:50.332Z,12.77
2018-06-24T02:22:19.418Z,11.93
2018-06-24T02:24:48.931Z,9.27
2018-06-24T02:27:17.957Z,10.37
2018-06-24T02:29:47.710Z,13.57
2018-06-24T02:32:16.311Z,11.90
2018-06-24T02:34:44.896Z,11.13
2018-06-24T02:37:13.554Z,10.83
2018-06-24T02:39:42.903Z,9.47
2018-06-24T02:42:12.142Z,10.10
2018-06-24T02:44:41.066Z,8.53
2018-06-24T02:47:11.487Z,10.83
2018-06-24T02:49:42.063Z,10.77
2018-06-24T02:52:11.322Z,9.77
2018-06-24T02:54:40.943Z,9.77
2018-06-24T02:57:11.192Z,8.87
2018-06-24T02:59:40.694Z,12.77
2018-06-24T03:02:10.132Z,9.50
2018-06-24T03:04:39.194Z,7.33
2018-06-24T03:07:07.757Z,8.90
2018-06-24T03:09:37.792Z,8.87
2018-06-24T03:12:06.781Z,7.50
2018-06-24T03:14:35.306Z,11.03
2018-06-24T03:17:04.422Z,8.23
2018-06-24T03:19:33.386Z,8.50
2018-06-24T03:22:02.177Z,9.27
2018-06-24T03:24:31.530Z,10.13
2018-06-24T03:27:00.974Z,8.93
2018-06-24T03:29:29.537Z,8.17
2018-06-24T03:31:58.643Z,9.47
2018-06-24T03:34:27.208Z,7.40
2018-06-24T03:36:57.792Z,10.17
2018-06-24T03:39:26.338Z,8.17
2018-06-24T03:41:54.916Z,11.03
2018-06-24T03:44:24.390Z,8.57
2018-06-24T03:46:53.470Z,7.97
2018-06-24T03:49:22.248Z,7.57
2018-06-24T03:51:51.668Z,10.10
2018-06-24T03:54:22.246Z,11.20
2018-06-24T03:56:51.282Z,11.13
2018-06-24T03:59:19.911Z,6.70
2018-06-24T04:01:48.730Z,9.30
2018-06-24T04:04:18.543Z,7.37
2018-06-24T04:06:47.640Z,9.37
2018-06-24T04:09:17.302Z,10.20
2018-06-24T04:11:46.463Z,8.60
2018-06-24T04:14:15.056Z,11.37
2018-06-24T04:16:43.554Z,10.57
2018-06-24T04:19:12.624Z,8.37
2018-06-24T04:21:41.861Z,9.50
2018-06-24T04:24:10.774Z,9.70
2018-06-24T04:26:41.046Z,7.50
2018-06-24T04:29:11.696Z,9.63
2018-06-24T04:31:42.840Z,11.33
2018-06-24T04:34:11.360Z,10.63
2018-06-24T04:36:40.193Z,17.80
2018-06-24T04:39:10.317Z,10.07
2018-06-24T04:41:39.519Z,7.97
2018-06-24T04:44:08.475Z,13.00
2018-06-24T04:46:37.573Z,12.70
2018-06-24T04:49:06.107Z,11.60
2018-06-24T04:51:34.744Z,8.80
2018-06-24T04:54:03.527Z,10.50
2018-06-24T04:56:32.075Z,11.87
2018-06-24T04:59:01.266Z,12.60
2018-06-24T05:01:29.832Z,10.57
2018-06-24T05:03:59.271Z,13.10
2018-06-24T05:06:28.700Z,9.27
2018-06-24T05:08:57.230Z,13.17
2018-06-24T05:11:27.527Z,14.73
2018-06-24T05:13:56.473Z,10.13
2018-06-24T05:16:25.046Z,9.00
2018-06-24T05:18:54.040Z,9.00
2018-06-24T05:21:22.704Z,10.30
2018-06-24T05:23:51.197Z,8.53
2018-06-24T05:26:20.014Z,10.80
2018-06-24T05:28:49.012Z,11.47
2018-06-24T05:31:17.799Z,9.43
2018-06-24T05:33:46.899Z,14.20
2018-06-24T05:36:15.379Z,13.33
2018-06-24T05:38:44.013Z,12.30
2018-06-24T05:41:12.642Z,11.27
2018-06-24T05:43:41.177Z,12.73
2018-06-24T05:46:09.781Z,10.67
2018-06-24T05:48:38.346Z,13.50
2018-06-24T05:51:07.669Z,12.70
2018-06-24T05:53:36.246Z,16.50
2018-06-24T05:56:04.863Z,12.73
2018-06-24T05:58:34.245Z,12.53
2018-06-24T06:01:07.098Z,10.30
2018-06-24T06:03:36.108Z,11.83
2018-06-24T06:06:05.651Z,10.20
2018-06-24T06:08:34.397Z,15.40
2018-06-24T06:11:03.086Z,11.70
2018-06-24T06:13:32.531Z,12.50
2018-06-24T06:16:01.311Z,13.40
2018-06-24T06:18:31.618Z,12.80
2018-06-24T06:21:00.878Z,15.37
2018-06-24T06:23:29.473Z,12.43
2018-06-24T06:25:58.666Z,7.93
2018-06-24T06:28:27.427Z,11.47
2018-06-24T06:30:55.948Z,17.30
2018-06-24T06:33:24.499Z,8.03
2018-06-24T06:35:53.091Z,14.17
2018-06-24T06:38:21.976Z,15.20
2018-06-24T06:40:50.465Z,8.97
2018-06-24T06:43:18.982Z,11.93
2018-06-24T06:45:48.269Z,8.47
2018-06-24T06:48:16.958Z,11.00
2018-06-24T06:50:45.487Z,11.20
2018-06-24T06:53:14.113Z,11.23
2018-06-24T06:55:42.696Z,10.00
2018-06-24T06:58:11.267Z,12.50
2018-06-24T07:00:39.841Z,9.33
2018-06-24T07:03:08.377Z,8.70
2018-06-24T07:05:37.632Z,14.60
2018-06-24T07:08:06.326Z,9.93
2018-06-24T07:10:35.241Z,11.00
2018-06-24T07:13:03.844Z,12.47
2018-06-24T07:15:32.704Z,10.40
2018-06-24T07:18:01.614Z,12.87
2018-06-24T07:20:30.106Z,14.43
2018-06-24T07:22:58.673Z,17.53
2018-06-24T07:25:27.165Z,13.30
2018-06-24T07:27:55.702Z,14.33
2018-06-24T07:30:24.317Z,9.17
2018-06-24T07:32:53.044Z,10.30
2018-06-24T07:35:21.667Z,10.53
2018-06-24T07:37:50.349Z,12.00
2018-06-24T07:40:18.896Z,10.90
2018-06-24T07:42:47.490Z,12.57
2018-06-24T07:45:17.191Z,10.33
2018-06-24T07:47:45.680Z,8.97
2018-06-24T07:50:14.300Z,11.50
2018-06-24T07:52:42.830Z,11.03
2018-06-24T07:55:11.381Z,10.70
2018-06-24T07:57:40.974Z,10.67
2018-06-24T08:00:10.697Z,8.97
2018-06-24T08:02:41.010Z,9.30
2018-06-24T08:05:09.465Z,19.13
2018-06-24T08:07:38.016Z,9.90
2018-06-24T08:10:06.548Z,13.37
2018-06-24T08:12:35.689Z,10.20
2018-06-24T08:15:04.944Z,14.10
2018-06-24T08:17:33.488Z,11.97
2018-06-24T08:20:01.903Z,15.17
2018-06-24T08:22:31.054Z,13.40
2018-06-24T08:24:59.857Z,11.23
2018-06-24T08:27:28.396Z,11.83
2018-06-24T08:29:56.987Z,11.27
2018-06-24T08:32:25.488Z,9.03
2018-06-24T08:34:53.997Z,15.30
2018-06-24T08:37:23.084Z,13.20
2018-06-24T08:39:51.644Z,10.80
2018-06-24T08:42:20.229Z,10.23
2018-06-24T08:44:49.484Z,9.40
2018-06-24T08:47:18.345Z,12.97
2018-06-24T08:49:47.357Z,10.60
2018-06-24T08:52:15.926Z,10.30
2018-06-24T08:54:44.520Z,11.57
2018-06-24T08:57:13.066Z,8.97
2018-06-24T08:59:41.550Z,10.87
2018-06-24T09:02:10.284Z,13.57
2018-06-24T09:04:38.799Z,10.13
2018-06-24T09:07:07.376Z,9.10
2018-06-24T09:09:36.059Z,14.40
2018-06-24T09:12:05.257Z,11.50
2018-06-24T09:14:33.794Z,13.60
2018-06-24T09:17:02.629Z,9.87
2018-06-24T09:19:31.220Z,12.43
2018-06-24T09:22:00.044Z,10.73
2018-06-24T09:24:28.572Z,15.07
2018-06-24T09:26:57.290Z,11.30
2018-06-24T09:29:26.209Z,8.73
2018-06-24T09:31:54.842Z,12.30
2018-06-24T09:34:27.336Z,11.70
2018-06-24T09:36:56.623Z,9.40
2018-06-24T09:39:28.148Z,14.47
2018-06-24T09:41:57.407Z,12.00
2018-06-24T09:44:48.031Z,11.17
2018-06-24T09:47:18.701Z,12.03
2018-06-24T09:49:55.596Z,11.80
2018-06-24T09:52:24.996Z,10.00
2018-06-24T09:54:54.190Z,9.70
2018-06-24T09:57:23.544Z,8.80
2018-06-24T09:59:52.261Z,10.23
2018-06-24T10:02:20.865Z,11.50
2018-06-24T10:04:49.791Z,7.97
2018-06-24T10:07:18.631Z,8.60
2018-06-24T10:09:59.092Z,13.63
2018-06-24T10:12:27.976Z,8.50
2018-06-24T10:14:56.720Z,9.50
2018-06-24T10:17:28.045Z,9.17
2018-06-24T10:19:56.782Z,8.00
2018-06-24T10:22:27.590Z,7.77
2018-06-24T10:24:56.505Z,8.53
2018-06-24T10:27:25.388Z,7.10
2018-06-24T10:29:56.184Z,6.13
2018-06-24T10:32:27.719Z,8.70
2018-06-24T10:34:59.458Z,10.90
2018-06-24T10:37:32.453Z,6.63
2018-06-24T10:40:01.595Z,5.97
2018-06-24T10:42:33.170Z,7.47
2018-06-24T10:45:02.702Z,7.70
2018-06-24T10:47:31.381Z,9.73
2018-06-24T10:50:00.838Z,8.20
2018-06-24T10:52:33.420Z,6.67
2018-06-24T10:55:03.775Z,6.37
2018-06-24T10:57:32.684Z,9.30
2018-06-24T11:00:01.452Z,6.20
2018-06-24T11:02:30.710Z,4.97
2018-06-24T11:05:00.553Z,7.33
2018-06-24T11:07:29.349Z,6.23
2018-06-24T11:09:59.324Z,6.63
2018-06-24T11:12:28.071Z,8.97
2018-06-24T11:14:57.473Z,4.60
2018-06-24T11:17:26.531Z,7.27
2018-06-24T11:19:55.185Z,7.23
2018-06-24T11:22:24.961Z,7.50
2018-06-24T11:24:56.243Z,7.73
2018-06-24T11:27:27.395Z,7.60
2018-06-24T11:29:57.034Z,6.73
2018-06-24T11:32:25.888Z,8.43
2018-06-24T11:34:57.564Z,4.90
2018-06-24T11:37:26.991Z,5.70
2018-06-24T11:40:00.031Z,6.17
2018-06-24T11:42:29.713Z,5.73
2018-06-24T11:45:06.794Z,7.17
2018-06-24T11:47:37.362Z,9.93
2018-06-24T11:50:08.237Z,5.63
2018-06-24T11:52:37.096Z,5.07
2018-06-24T11:55:06.852Z,10.20
2018-06-24T11:57:36.684Z,9.87
2018-06-24T12:00:07.158Z,10.50
2018-06-24T12:02:40.052Z,9.90
2018-06-24T12:05:10.472Z,6.60
2018-06-24T12:07:39.069Z,6.90
2018-06-24T12:10:09.413Z,10.17
2018-06-24T12:12:38.399Z,4.73
2018-06-24T12:15:11.240Z,6.97
2018-06-24T12:17:40.295Z,5.67
2018-06-24T12:20:09.547Z,5.77
2018-06-24T12:22:44.595Z,6.13
2018-06-24T12:25:14.042Z,6.33
2018-06-24T12:27:48.186Z,4.67
2018-06-24T12:30:17.957Z,6.97
2018-06-24T12:32:47.348Z,6.20
2018-06-24T12:35:16.710Z,6.00
2018-06-24T12:37:50.065Z,11.00
2018-06-24T12:40:26.968Z,4.70
2018-06-24T12:42:55.567Z,4.17
2018-06-24T12:45:24.888Z,5.37
2018-06-24T12:47:54.309Z,7.27
2018-06-24T12:50:23.187Z,3.87
2018-06-24T12:52:53.472Z,7.90
2018-06-24T12:55:23.428Z,4.57
2018-06-24T12:57:53.110Z,8.20
2018-06-24T13:00:24.810Z,4.43
2018-06-24T13:02:53.546Z,4.90
2018-06-24T13:05:22.236Z,7.17
2018-06-24T13:07:52.530Z,6.83
2018-06-24T13:10:31.081Z,5.40
2018-06-24T13:13:12.838Z,5.87
2018-06-24T13:15:50.989Z,4.87
2018-06-24T13:18:36.923Z,7.23
2018-06-24T13:21:10.490Z,6.23
2018-06-24T13:23:44.664Z,5.63
2018-06-24T13:26:22.713Z,6.03
2018-06-24T13:29:02.812Z,7.07
2018-06-24T13:31:35.475Z,4.20
2018-06-24T13:34:09.271Z,4.20
2018-06-24T13:36:48.166Z,5.00
2018-06-24T13:39:20.271Z,6.90
2018-06-24T13:47:01.931Z,4.10
2018-06-24T13:49:37.113Z,6.00
2018-06-24T13:52:07.591Z,6.10
2018-06-24T13:54:41.947Z,5.47
2018-06-24T13:57:21.181Z,4.60
2018-06-24T13:59:52.710Z,5.73
2018-06-24T14:02:21.998Z,5.23
2018-06-24T14:04:52.431Z,5.90
2018-06-24T14:07:21.192Z,5.30
2018-06-24T14:09:53.381Z,5.03
2018-06-24T14:12:25.505Z,6.10
2018-06-24T14:14:58.731Z,3.60
2018-06-24T14:17:31.214Z,5.33
2018-06-24T14:20:01.705Z,3.00
2018-06-24T14:22:32.886Z,4.43
2018-06-24T14:25:04.200Z,4.43
2018-06-24T14:27:35.301Z,3.37
2018-06-24T14:30:04.273Z,5.00
2018-06-24T14:32:37.759Z,2.83
2018-06-24T14:35:07.074Z,4.40
2018-06-24T14:37:37.627Z,4.70
2018-06-24T14:40:06.226Z,6.77
2018-06-24T14:42:36.409Z,3.43
2018-06-24T14:45:08.838Z,3.23
2018-06-24T14:47:40.846Z,3.50
2018-06-24T14:50:12.603Z,4.03
2018-06-24T14:52:43.057Z,4.20
2018-06-24T14:55:12.958Z,6.37
2018-06-24T14:57:48.079Z,4.03
2018-06-24T15:00:17.478Z,4.87
2018-06-24T15:02:47.145Z,2.77
2018-06-24T15:05:20.539Z,3.20
2018-06-24T15:07:50.510Z,3.40
2018-06-24T15:10:20.658Z,3.60
2018-06-24T15:12:50.193Z,3.30
2018-06-24T15:15:20.811Z,3.10
2018-06-24T15:17:54.328Z,4.70
2018-06-24T15:20:23.220Z,3.80
2018-06-24T15:22:51.860Z,3.80
2018-06-24T15:25:25.129Z,2.63
2018-06-24T15:27:55.529Z,3.80
2018-06-24T15:30:31.071Z,3.40
2018-06-24T15:33:01.805Z,5.50
2018-06-24T15:35:31.699Z,3.80
2018-06-24T15:38:01.622Z,5.73
2018-06-24T15:40:51.313Z,3.77
2018-06-24T15:43:41.859Z,3.97
2018-06-24T15:46:11.849Z,3.07
2018-06-24T15:52:12.740Z,4.57
2018-06-24T15:54:44.147Z,5.63
2018-06-24T15:57:25.437Z,4.30
2018-06-24T16:00:16.664Z,4.70
2018-06-24T16:03:09.097Z,5.57
2018-06-24T16:05:40.561Z,3.00
2018-06-24T16:08:10.968Z,4.00
2018-06-24T16:10:47.778Z,3.70
2018-06-24T16:16:10.065Z,3.33
2018-06-24T16:18:44.837Z,3.70
2018-06-24T16:21:15.262Z,3.60
2018-06-24T16:23:46.500Z,3.93
2018-06-24T16:26:22.117Z,4.00
2018-06-24T16:28:52.286Z,3.40
2018-06-24T16:31:23.583Z,3.90
2018-06-24T16:33:59.387Z,5.03
2018-06-24T16:36:29.012Z,3.43
2018-06-24T16:39:03.365Z,3.90
2018-06-24T16:41:32.092Z,5.13
2018-06-24T16:44:05.099Z,4.60
2018-06-24T16:46:34.629Z,3.97
2018-06-24T16:49:04.790Z,3.50
2018-06-24T16:51:35.249Z,3.27
2018-06-24T16:54:05.692Z,3.80
2018-06-24T16:56:38.741Z,5.63
2018-06-24T16:59:09.761Z,4.03
2018-06-24T17:01:40.193Z,3.50
2018-06-24T17:04:12.308Z,5.50
2018-06-24T17:06:46.097Z,4.73
2018-06-24T17:09:15.797Z,4.40
2018-06-24T17:11:48.081Z,4.50
2018-06-24T17:14:16.735Z,5.27
2018-06-24T17:16:46.444Z,3.97
2018-06-24T17:19:19.773Z,5.60
2018-06-24T17:21:50.233Z,4.50
2018-06-24T17:24:21.517Z,5.83
2018-06-24T17:26:52.937Z,5.43
2018-06-24T17:29:23.112Z,4.27
2018-06-24T17:31:59.010Z,3.77
2018-06-24T17:34:32.031Z,5.60
2018-06-24T17:37:17.540Z,4.80
2018-06-24T17:39:49.084Z,12.03
2018-06-24T17:42:19.074Z,7.10
2018-06-24T17:44:48.168Z,5.00
2018-06-24T17:47:18.982Z,5.83
2018-06-24T17:49:50.648Z,6.93
2018-06-24T17:52:24.302Z,5.00
2018-06-24T17:54:55.959Z,4.90
2018-06-24T17:57:48.354Z,4.73
2018-06-24T18:00:19.493Z,5.90
2018-06-24T18:02:58.548Z,5.10
2018-06-24T18:05:30.617Z,5.60
2018-06-24T18:08:01.208Z,5.73
2018-06-24T18:10:32.562Z,8.30
2018-06-24T18:13:03.304Z,7.20
2018-06-24T18:15:44.778Z,7.43
2018-06-24T18:23:23.559Z,7.30
2018-06-24T18:26:07.535Z,7.00
2018-06-24T18:35:04.657Z,5.63
2018-06-24T18:40:52.825Z,9.03
2018-06-24T18:43:56.387Z,5.27
2018-06-24T18:56:35.172Z,5.93
2018-06-24T18:59:05.261Z,7.20
2018-06-24T19:01:35.009Z,8.07
2018-06-24T19:04:04.551Z,6.13
2018-06-24T19:06:33.787Z,6.40
2018-06-24T19:09:02.584Z,6.33
2018-06-24T19:11:31.421Z,7.87
2018-06-24T19:14:00.625Z,8.43
2018-06-24T19:16:29.569Z,8.73
2018-06-24T19:18:59.160Z,6.70
2018-06-24T19:21:27.949Z,7.00
2018-06-24T19:23:57.060Z,6.60
2018-06-24T19:26:25.786Z,8.73
2018-06-24T19:28:54.500Z,8.33
2018-06-24T19:31:27.626Z,5.70
2018-06-24T19:33:58.113Z,8.17
2018-06-24T19:36:29.958Z,6.17
2018-06-24T19:38:58.932Z,6.40
2018-06-24T19:41:27.718Z,6.10
2018-06-24T19:43:57.098Z,9.00
2018-06-24T19:46:25.735Z,6.73
2018-06-24T19:48:56.452Z,7.70
2018-06-24T19:51:26.006Z,6.43
2018-06-24T19:53:56.440Z,10.40
2018-06-24T19:56:26.107Z,8.00
2018-06-24T19:58:56.120Z,5.93
2018-06-24T20:01:25.634Z,5.97
2018-06-24T20:03:55.034Z,6.93
2018-06-24T20:06:23.608Z,10.87
2018-06-24T20:08:52.122Z,6.67
2018-06-24T20:11:20.674Z,7.43
2018-06-24T20:13:49.464Z,5.87
2018-06-24T20:16:18.380Z,6.10
2018-06-24T20:18:47.095Z,5.40
2018-06-24T20:21:15.931Z,6.27
2018-06-24T20:23:44.461Z,5.13
2018-06-24T20:26:13.387Z,7.47
2018-06-24T20:28:41.992Z,6.27
2018-06-24T20:31:10.466Z,6.83
2018-06-24T20:33:39.023Z,7.90
2018-06-24T20:36:07.926Z,6.37
2018-06-24T20:38:36.749Z,6.40
2018-06-24T20:41:05.320Z,7.37
2018-06-24T20:43:33.877Z,5.27
2018-06-24T20:46:02.481Z,4.87
2018-06-24T20:48:30.993Z,5.27
2018-06-24T20:50:59.511Z,7.53
2018-06-24T20:53:28.271Z,6.70
2018-06-24T20:55:57.754Z,7.63
2018-06-24T20:58:26.343Z,7.23
2018-06-24T21:00:54.847Z,4.90
2018-06-24T21:03:23.947Z,5.67
2018-06-24T21:05:52.652Z,5.07
2018-06-24T21:08:21.189Z,7.50
2018-06-24T21:10:49.773Z,6.40
2018-06-24T21:13:18.346Z,8.40
2018-06-24T21:15:46.997Z,7.27
2018-06-24T21:18:15.586Z,9.77
2018-06-24T21:20:44.043Z,7.90
2018-06-24T21:23:12.620Z,7.60
2018-06-24T21:25:41.170Z,7.77
2018-06-24T21:28:09.720Z,8.57
2018-06-24T21:30:38.377Z,6.03
2018-06-24T21:33:06.962Z,5.80
2018-06-24T21:35:35.607Z,7.03
2018-06-24T21:38:04.072Z,8.80
2018-06-24T21:40:32.773Z,5.90
2018-06-24T21:43:01.235Z,9.00
2018-06-24T21:45:29.724Z,10.40
2018-06-24T21:47:58.292Z,7.90
2018-06-24T21:50:27.000Z,8.90
2018-06-24T21:52:55.849Z,10.10
2018-06-24T21:55:24.361Z,8.63
2018-06-24T21:57:52.896Z,9.70
2018-06-24T22:00:21.508Z,8.63
2018-06-24T22:02:50.885Z,8.33
2018-06-24T22:05:19.519Z,8.57
2018-06-24T22:07:47.981Z,8.03
2018-06-24T22:10:23.329Z,9.27
2018-06-24T22:12:52.875Z,10.20
2018-06-24T22:15:21.410Z,9.20
2018-06-24T22:17:49.945Z,7.43
2018-06-24T22:20:18.490Z,8.03
2018-06-24T22:22:47.086Z,7.97
2018-06-24T22:25:15.692Z,6.87
2018-06-24T22:27:44.375Z,7.30
2018-06-24T22:30:12.917Z,7.50
2018-06-24T22:32:41.381Z,8.17
2018-06-24T22:35:09.913Z,7.27
2018-06-24T22:37:38.487Z,8.90
2018-06-24T22:40:07.033Z,6.37
2018-06-24T22:42:35.594Z,6.57
2018-06-24T22:45:04.116Z,9.67
2018-06-24T22:47:32.613Z,6.90
2018-06-24T22:50:01.142Z,6.40
2018-06-24T22:52:29.615Z,9.47
2018-06-24T22:54:58.328Z,9.37
2018-06-24T22:57:26.923Z,11.27
2018-06-24T23:00:06.179Z,6.27
2018-06-24T23:02:34.608Z,6.00
2018-06-24T23:05:03.050Z,8.40
2018-06-24T23:07:31.521Z,5.90
2018-06-24T23:10:00.741Z,7.20
2018-06-24T23:12:29.233Z,6.67
2018-06-24T23:14:57.875Z,6.40
2018-06-24T23:17:26.449Z,8.50
2018-06-24T23:19:55.870Z,5.30
2018-06-24T23:22:24.375Z,4.97
2018-06-24T23:24:53.700Z,7.40
2018-06-24T23:27:22.502Z,7.60
2018-06-24T23:29:51.816Z,8.90
2018-06-24T23:32:20.540Z,5.93
2018-06-24T23:34:49.013Z,8.23
2018-06-24T23:37:17.562Z,5.00
2018-06-24T23:39:46.022Z,6.03
2018-06-24T23:42:14.661Z,5.47
2018-06-24T23:44:43.554Z,5.03
2018-06-24T23:47:12.027Z,7.67
2018-06-24T23:49:40.557Z,5.30
2018-06-24T23:52:09.178Z,5.63
2018-06-24T23:54:37.690Z,7.37
2018-06-24T23:57:06.280Z,5.67
2018-06-24T23:59:35.446Z,5.93
